Time;durP1;ratioP1;P1;durP2;ratioP2;P2;SDS_P1;SDS_P2;PMS_P1;PMS_P2;Temp;Humidity;BMP_temperature;BMP_pressure;BME280_temperature;BME280_humidity;BME280_pressure;Samples;Min_cycle;Max_cycle;Signal;HPM_P1;HPM_P2
2022/04/11 00:00:51;;;;;;;1.48;0.80;;;;;;;21.06;32.69;99238.47;5131865;28;20077;-60
2022/04/11 00:03:17;;;;;;;1.45;0.80;;;;;;;21.06;32.56;99232.91;5131828;28;20068;-60
2022/04/11 00:05:42;;;;;;;1.20;0.70;;;;;;;21.07;32.49;99232.53;5131879;28;20197;-60
2022/04/11 00:08:08;;;;;;;1.00;0.68;;;;;;;21.06;32.53;99235.69;5131745;28;20039;-61
2022/04/11 00:10:33;;;;;;;1.20;0.77;;;;;;;21.07;32.46;99237.28;5131704;28;20526;-60
2022/04/11 00:13:07;;;;;;;1.15;0.60;;;;;;;21.06;32.50;99233.69;5131803;28;20414;-61
2022/04/11 00:15:34;;;;;;;1.25;0.82;;;;;;;21.06;32.60;99227.34;5131505;28;20047;-60
2022/04/11 00:18:03;;;;;;;1.08;0.63;;;;;;;21.04;32.76;99224.94;5131545;28;20035;-60
2022/04/11 00:20:29;;;;;;;1.05;0.65;;;;;;;21.03;32.65;99228.13;5131297;28;20055;-60
2022/04/11 00:22:55;;;;;;;0.98;0.60;;;;;;;21.06;32.38;99232.91;5131469;28;20507;-60
2022/04/11 00:25:20;;;;;;;0.93;0.65;;;;;;;21.05;32.53;99234.09;5131487;28;20065;-60
2022/04/11 00:27:46;;;;;;;1.25;0.70;;;;;;;21.05;32.60;99229.31;5131449;28;20161;-60
2022/04/11 00:30:12;;;;;;;1.73;0.88;;;;;;;21.07;32.57;99217.81;5131349;28;20480;-60
2022/04/11 00:32:43;;;;;;;1.65;0.77;;;;;;;21.09;32.50;99229.38;5131263;28;20050;-60
2022/04/11 00:35:10;;;;;;;1.20;0.73;;;;;;;21.07;32.63;99224.19;5131266;28;20499;-60
2022/04/11 00:37:37;;;;;;;1.45;0.82;;;;;;;21.09;32.23;99221.84;5131323;28;20035;-60
2022/04/11 00:40:04;;;;;;;1.30;0.70;;;;;;;21.08;32.64;99222.22;5131168;28;20053;-60
2022/04/11 00:42:31;;;;;;;1.33;0.90;;;;;;;21.07;32.30;99215.84;5131229;28;20555;-60
2022/04/11 00:44:57;;;;;;;0.85;0.65;;;;;;;21.07;32.27;99213.06;5131171;28;20047;-60
2022/04/11 00:47:22;;;;;;;1.08;0.70;;;;;;;21.07;32.65;99221.41;5131144;28;20513;-60
2022/04/11 00:49:48;;;;;;;1.40;0.70;;;;;;;21.09;32.32;99215.47;5131246;28;20051;-60
2022/04/11 00:52:15;;;;;;;1.70;0.70;;;;;;;21.09;32.33;99221.03;5131207;28;20039;-60
2022/04/11 00:54:42;;;;;;;1.38;0.73;;;;;;;21.08;32.59;99231.38;5130079;27;20054;-60
2022/04/11 00:57:09;;;;;;;1.17;0.70;;;;;;;21.07;32.24;99220.59;5131118;28;20051;-60
2022/04/11 00:59:35;;;;;;;1.02;0.70;;;;;;;21.08;32.69;99219.44;5130958;28;20096;-60
2022/04/11 01:02:04;;;;;;;1.30;0.70;;;;;;;21.08;32.50;99223.03;5131155;28;20042;-60
2022/04/11 01:04:30;;;;;;;1.70;0.85;;;;;;;21.07;32.51;99217.81;5130877;28;20515;-60
2022/04/11 01:06:56;;;;;;;1.40;0.88;;;;;;;21.04;32.36;99224.94;5130836;28;20039;-60
2022/04/11 01:09:25;;;;;;;1.10;0.70;;;;;;;21.06;32.48;99221.78;5130865;28;20066;-61
2022/04/11 01:11:52;;;;;;;1.13;0.80;;;;;;;21.05;32.24;99220.19;5130909;28;20435;-60
2022/04/11 01:14:18;;;;;;;1.05;0.65;;;;;;;21.04;32.36;99219.38;5130781;28;20049;-60
2022/04/11 01:16:51;;;;;;;1.33;0.77;;;;;;;21.04;32.36;99219.38;5130617;28;20047;-60
2022/04/11 01:19:17;;;;;;;1.20;0.70;;;;;;;21.04;32.35;99221.38;5130613;28;20082;-60
2022/04/11 01:21:43;;;;;;;1.20;0.65;;;;;;;21.05;32.36;99223.75;5130759;28;20383;-66
2022/04/11 01:24:09;;;;;;;1.10;0.80;;;;;;;21.06;32.39;99219.00;5130697;28;20039;-66
2022/04/11 01:26:35;;;;;;;1.10;0.63;;;;;;;21.04;32.09;99213.81;5130722;28;20404;-66
2022/04/11 01:29:02;;;;;;;0.95;0.60;;;;;;;21.05;32.18;99215.44;5130512;28;20416;-66
2022/04/11 01:31:27;;;;;;;1.10;0.70;;;;;;;21.08;32.31;99216.66;5130494;28;20468;-66
2022/04/11 01:33:53;;;;;;;0.77;0.52;;;;;;;21.07;32.38;99215.03;5130507;28;20567;-66
2022/04/11 01:36:18;;;;;;;1.05;0.60;;;;;;;21.05;32.15;99207.09;5130550;28;20043;-66
2022/04/11 01:38:44;;;;;;;1.08;0.60;;;;;;;21.05;32.25;99215.44;5128789;28;20422;-66
2022/04/11 01:41:09;;;;;;;1.60;0.70;;;;;;;21.05;32.30;99214.63;5130167;28;20104;-66
2022/04/11 01:43:34;;;;;;;1.27;0.70;;;;;;;21.05;32.14;99217.41;5130356;28;20043;-66
2022/04/11 01:46:00;;;;;;;0.73;0.50;;;;;;;21.05;32.48;99211.84;5130403;28;20130;-66
2022/04/11 01:48:25;;;;;;;1.00;0.60;;;;;;;21.03;32.28;99205.88;5130569;28;20054;-66
2022/04/11 01:50:51;;;;;;;1.05;0.70;;;;;;;21.05;32.12;99209.84;5130327;28;20047;-66
2022/04/11 01:53:18;;;;;;;0.93;0.55;;;;;;;21.03;32.37;99211.44;5130107;28;20066;-66
2022/04/11 01:55:44;;;;;;;1.17;0.70;;;;;;;21.04;32.08;99218.59;5130071;28;20039;-66
2022/04/11 01:58:11;;;;;;;1.73;0.80;;;;;;;21.02;32.16;99218.19;5130272;28;20047;-66
2022/04/11 02:00:38;;;;;;;1.40;0.73;;;;;;;21.03;31.99;99223.34;5130126;28;20421;-66
2022/04/11 02:03:05;;;;;;;1.02;0.60;;;;;;;21.03;32.25;99211.44;5130088;28;20039;-66
2022/04/11 02:05:32;;;;;;;1.10;0.70;;;;;;;21.02;31.99;99209.84;5130058;27;20051;-66
2022/04/11 02:07:58;;;;;;;1.25;0.70;;;;;;;21.03;32.21;99219.78;5133433;28;20541;-66
2022/04/11 02:10:23;;;;;;;1.00;0.70;;;;;;;21.03;32.19;99222.56;5133709;28;20044;-66
2022/04/11 02:12:50;;;;;;;0.85;0.60;;;;;;;21.03;31.93;99217.78;5133597;28;20047;-66
2022/04/11 02:15:16;;;;;;;1.15;0.60;;;;;;;21.04;32.03;99213.03;5133664;28;20043;-66
2022/04/11 02:17:42;;;;;;;1.00;0.60;;;;;;;21.01;31.96;99216.59;5133566;28;20063;-60
2022/04/11 02:20:09;;;;;;;1.17;0.70;;;;;;;21.01;31.82;99214.59;5133327;28;20047;-60
2022/04/11 02:22:44;;;;;;;1.38;0.85;;;;;;;21.02;32.04;99220.97;5133513;28;20068;-60
2022/04/11 02:25:09;;;;;;;1.00;0.70;;;;;;;21.04;32.10;99224.16;5133604;28;20039;-60
2022/04/11 02:27:35;;;;;;;1.35;0.73;;;;;;;21.01;32.12;99220.16;5133380;28;20050;-60
2022/04/11 02:30:00;;;;;;;1.25;0.70;;;;;;;21.01;32.20;99228.50;5133294;28;20061;-60
2022/04/11 02:32:25;;;;;;;1.10;0.65;;;;;;;21.01;32.02;99225.72;5133263;28;20042;-60
2022/04/11 02:34:51;;;;;;;1.25;0.70;;;;;;;21.00;31.98;99224.09;5133290;28;20134;-60
2022/04/11 02:37:16;;;;;;;1.40;0.80;;;;;;;21.02;32.03;99223.75;5133142;28;20220;-60
2022/04/11 02:39:42;;;;;;;1.55;0.70;;;;;;;20.98;31.95;99222.88;5133319;28;20514;-66
2022/04/11 02:42:07;;;;;;;1.20;0.63;;;;;;;20.99;32.05;99225.28;5133215;28;20043;-66
2022/04/11 02:44:32;;;;;;;1.05;0.70;;;;;;;20.99;31.95;99227.28;5133156;28;20439;-66
2022/04/11 02:46:58;;;;;;;1.20;0.70;;;;;;;20.99;32.09;99228.06;5133190;28;20384;-66
2022/04/11 02:49:23;;;;;;;1.25;0.70;;;;;;;20.99;31.84;99219.72;5133023;28;20039;-66
2022/04/11 02:51:48;;;;;;;1.10;0.80;;;;;;;20.99;31.85;99213.38;5098810;28;20515;-66
2022/04/11 02:54:14;;;;;;;1.30;0.80;;;;;;;20.99;32.06;99218.94;5133051;28;20502;-66
2022/04/11 02:56:40;;;;;;;1.05;0.70;;;;;;;20.99;31.88;99216.16;5132871;28;20043;-66
2022/04/11 02:59:05;;;;;;;1.33;0.80;;;;;;;20.98;31.96;99220.91;5132819;28;20047;-66
2022/04/11 03:01:30;;;;;;;1.10;0.70;;;;;;;20.98;32.19;99220.91;5132972;28;20039;-66
2022/04/11 03:03:56;;;;;;;1.20;0.80;;;;;;;20.97;31.87;99221.28;5132630;28;20388;-66
2022/04/11 03:06:21;;;;;;;1.00;0.60;;;;;;;20.96;32.02;99226.06;5132757;28;20036;-66
2022/04/11 03:08:47;;;;;;;1.60;0.75;;;;;;;20.97;32.10;99222.09;5132624;28;20055;-65
2022/04/11 03:11:12;;;;;;;1.30;0.75;;;;;;;20.97;32.03;99221.28;5132849;28;20510;-66
2022/04/11 03:13:38;;;;;;;0.93;0.60;;;;;;;20.97;31.90;99224.06;5132715;28;20084;-65
2022/04/11 03:16:04;;;;;;;1.10;0.70;;;;;;;20.96;31.92;99216.91;5132627;28;20043;-66
2022/04/11 03:18:29;;;;;;;1.00;0.68;;;;;;;20.96;32.00;99214.94;5131335;27;20407;-66
2022/04/11 03:20:54;;;;;;;0.82;0.57;;;;;;;20.97;31.77;99219.31;5132427;28;20103;-66
2022/04/11 03:23:20;;;;;;;1.17;0.73;;;;;;;20.97;31.98;99212.94;5132591;28;20047;-66
2022/04/11 03:25:45;;;;;;;1.20;0.70;;;;;;;20.96;32.00;99211.34;5132336;28;20414;-66
2022/04/11 03:28:11;;;;;;;0.88;0.60;;;;;;;20.98;32.09;99209.00;5132528;28;20039;-66
2022/04/11 03:30:37;;;;;;;0.98;0.60;;;;;;;20.97;31.80;99207.41;5132443;28;20042;-66
2022/04/11 03:33:02;;;;;;;1.10;0.60;;;;;;;20.96;31.74;99205.78;5132287;28;20039;-66
2022/04/11 03:35:28;;;;;;;0.60;0.50;;;;;;;20.97;32.01;99207.41;5132403;28;20043;-66
2022/04/11 03:37:53;;;;;;;0.98;0.50;;;;;;;20.95;32.10;99205.00;5132386;28;20043;-66
2022/04/11 03:40:18;;;;;;;1.02;0.60;;;;;;;20.95;31.79;99193.09;5132021;28;20051;-66
2022/04/11 03:42:44;;;;;;;1.52;0.80;;;;;;;20.95;32.02;99190.31;5131854;28;20444;-66
2022/04/11 03:45:11;;;;;;;0.70;0.60;;;;;;;20.95;31.87;99193.09;5132079;28;20043;-66
2022/04/11 03:47:37;;;;;;;1.15;0.80;;;;;;;20.94;32.05;99192.28;5132191;28;20043;-66
2022/04/11 03:50:04;;;;;;;1.30;0.77;;;;;;;20.94;31.78;99180.38;5131873;28;20066;-66
2022/04/11 03:52:29;;;;;;;1.02;0.70;;;;;;;20.94;32.00;99172.03;5131918;28;20172;-66
2022/04/11 03:54:55;;;;;;;1.42;0.90;;;;;;;20.94;31.67;99172.03;5132093;28;20537;-66
2022/04/11 03:57:20;;;;;;;1.05;0.70;;;;;;;20.95;31.65;99187.53;5131826;28;20427;-66
2022/04/11 03:59:45;;;;;;;1.33;0.70;;;;;;;20.94;31.88;99188.72;5131789;28;20047;-66
2022/04/11 04:02:11;;;;;;;1.20;0.70;;;;;;;20.92;32.01;99180.72;5131965;28;20047;-65
2022/04/11 04:04:36;;;;;;;1.00;0.60;;;;;;;20.93;32.00;99164.84;5131821;28;20043;-66
2022/04/11 04:07:02;;;;;;;1.10;0.60;;;;;;;20.95;31.85;99162.50;5131892;28;20043;-65
2022/04/11 04:09:27;;;;;;;1.33;0.73;;;;;;;20.94;31.71;99158.13;5132003;28;20122;-66
2022/04/11 04:11:53;;;;;;;1.30;0.70;;;;;;;20.92;32.05;99164.03;5131513;28;20172;-65
2022/04/11 04:14:18;;;;;;;1.48;0.80;;;;;;;20.93;31.77;99162.84;5131762;28;20043;-66
2022/04/11 04:16:43;;;;;;;0.98;0.63;;;;;;;20.94;31.92;99158.91;5113096;28;20039;-66
2022/04/11 04:19:09;;;;;;;1.40;0.80;;;;;;;20.93;31.89;99160.06;5131644;28;20043;-66
2022/04/11 04:21:34;;;;;;;1.33;0.75;;;;;;;20.94;32.17;99158.13;5131703;28;20431;-65
2022/04/11 04:24:00;;;;;;;1.13;0.70;;;;;;;20.93;31.94;99160.06;5131677;28;20047;-66
2022/04/11 04:26:25;;;;;;;1.42;0.80;;;;;;;20.94;31.74;99158.13;5131644;28;20047;-65
2022/04/11 04:28:51;;;;;;;1.35;0.70;;;;;;;20.92;31.81;99152.91;5112916;27;20035;-66
2022/04/11 04:31:16;;;;;;;1.27;0.82;;;;;;;20.92;32.15;99149.34;5131469;28;20410;-66
2022/04/11 04:33:41;;;;;;;1.33;0.60;;;;;;;20.92;31.89;99150.13;5131629;28;20402;-66
2022/04/11 04:36:07;;;;;;;1.60;0.90;;;;;;;20.93;31.94;99159.28;5131639;28;20518;-66
2022/04/11 04:38:32;;;;;;;1.30;0.82;;;;;;;20.91;31.76;99153.31;5131327;28;20035;-65
2022/04/11 04:40:58;;;;;;;0.93;0.70;;;;;;;20.90;31.62;99155.28;5131126;28;20096;-66
2022/04/11 04:43:23;;;;;;;1.48;0.85;;;;;;;20.91;31.96;99165.22;5131188;28;20103;-66
2022/04/11 04:45:49;;;;;;;1.25;0.80;;;;;;;20.91;31.74;99158.88;5131309;28;20043;-66
2022/04/11 04:48:14;;;;;;;1.33;0.80;;;;;;;20.90;31.95;99174.75;5131239;28;20070;-66
2022/04/11 04:50:40;;;;;;;0.88;0.63;;;;;;;20.88;32.08;99158.47;5131087;28;20039;-66
2022/04/11 04:53:06;;;;;;;1.10;0.70;;;;;;;20.89;31.90;99165.63;5131006;28;20046;-66
2022/04/11 04:55:31;;;;;;;1.38;0.63;;;;;;;20.92;31.69;99168.81;5130871;28;20047;-66
2022/04/11 04:57:56;;;;;;;1.65;0.73;;;;;;;20.90;31.74;99166.41;5130732;28;20138;-66
2022/04/11 05:00:22;;;;;;;0.77;0.60;;;;;;;20.91;31.80;99172.78;5131082;28;20047;-66
2022/04/11 05:02:47;;;;;;;1.08;0.80;;;;;;;20.91;31.93;99175.53;5130833;28;20035;-66
2022/04/11 05:05:16;;;;;;;1.20;0.68;;;;;;;20.89;31.89;99162.84;5130780;28;20099;-66
2022/04/11 05:07:41;;;;;;;1.15;0.65;;;;;;;20.89;31.73;99157.28;5131030;28;20073;-66
2022/04/11 05:10:08;;;;;;;1.52;0.80;;;;;;;20.89;31.70;99170.38;5112619;28;20039;-66
2022/04/11 05:12:45;;;;;;;1.60;0.70;;;;;;;20.89;31.82;99179.50;5130757;28;20071;-66
2022/04/11 05:15:13;;;;;;;1.30;0.70;;;;;;;20.89;31.85;99178.72;5130705;28;20466;-66
2022/04/11 05:17:39;;;;;;;0.85;0.70;;;;;;;20.89;31.83;99179.50;5130616;28;20135;-66
2022/04/11 05:20:07;;;;;;;1.58;0.85;;;;;;;20.91;31.87;99178.31;5130567;28;20035;-66
2022/04/11 05:22:33;;;;;;;1.10;0.70;;;;;;;20.91;31.84;99183.88;5130249;28;20071;-66
2022/04/11 05:24:58;;;;;;;0.80;0.60;;;;;;;20.88;31.89;99183.47;5130607;28;20066;-65
2022/04/11 05:27:24;;;;;;;1.08;0.60;;;;;;;20.89;31.65;99179.50;5130851;28;20046;-66
2022/04/11 05:29:49;;;;;;;1.65;0.80;;;;;;;20.91;31.93;99186.66;5130781;28;20059;-66
2022/04/11 05:32:15;;;;;;;1.20;0.80;;;;;;;20.91;31.65;99187.47;5130548;28;20077;-65
2022/04/11 05:34:41;;;;;;;1.13;0.68;;;;;;;20.90;31.76;99183.09;5130475;28;20039;-66
2022/04/11 05:37:06;;;;;;;0.98;0.60;;;;;;;20.94;31.67;99185.94;5130444;28;20073;-66
2022/04/11 05:39:32;;;;;;;1.65;0.77;;;;;;;20.94;32.03;99188.72;5130282;28;20388;-66
2022/04/11 05:41:57;;;;;;;1.10;0.70;;;;;;;20.94;32.03;99186.72;5132626;27;20083;-66
2022/04/11 05:44:24;;;;;;;1.58;0.70;;;;;;;20.97;32.00;99172.03;5134030;28;20047;-66
2022/04/11 05:46:55;;;;;;;2.58;0.70;;;;;;;20.99;32.00;99174.44;5134088;28;20047;-66
2022/04/11 05:49:21;;;;;;;1.08;0.70;;;;;;;21.02;32.37;99180.06;5133930;28;20043;-65
2022/04/11 05:51:47;;;;;;;5.18;0.80;;;;;;;21.04;32.13;99182.44;5134129;28;20457;-65
2022/04/11 05:54:12;;;;;;;3.30;0.75;;;;;;;21.05;32.24;99181.25;5134026;28;20526;-65
2022/04/11 05:56:38;;;;;;;31.63;2.40;;;;;;;21.07;32.30;99184.44;5133822;28;20051;-59
2022/04/11 05:59:04;;;;;;;34.13;2.53;;;;;;;21.08;32.23;99189.66;5133734;28;20040;-59
2022/04/11 06:01:30;;;;;;;16.17;1.52;;;;;;;21.08;32.09;99191.63;5133932;28;20044;-59
2022/04/11 06:03:56;;;;;;;6.80;1.30;;;;;;;21.07;32.07;99188.03;5133860;28;20047;-59
2022/04/11 06:06:21;;;;;;;12.93;1.17;;;;;;;21.07;31.99;99188.03;5133530;28;20058;-60
2022/04/11 06:08:46;;;;;;;19.65;1.45;;;;;;;21.08;32.04;99183.28;5133491;28;20046;-60
2022/04/11 06:11:13;;;;;;;13.43;1.65;;;;;;;21.07;31.91;99187.22;5133711;28;20482;-59
2022/04/11 06:13:42;;;;;;;19.38;1.50;;;;;;;21.09;32.05;99196.00;5133560;28;20103;-60
2022/04/11 06:16:08;;;;;;;5.00;1.27;;;;;;;21.10;31.92;99197.59;5133212;28;20048;-60
2022/04/11 06:18:33;;;;;;;11.32;1.38;;;;;;;21.10;32.02;99197.59;5133672;28;20039;-60
2022/04/11 06:20:59;;;;;;;13.45;1.30;;;;;;;21.09;31.76;99194.03;5133439;28;20511;-60
2022/04/11 06:23:24;;;;;;;6.13;1.05;;;;;;;21.09;31.96;99194.03;5133534;28;20055;-59
2022/04/11 06:25:50;;;;;;;8.07;1.15;;;;;;;21.12;32.01;99189.66;5133106;28;20073;-59
2022/04/11 06:28:15;;;;;;;6.57;0.95;;;;;;;21.12;31.79;99198.81;5133302;28;20126;-59
2022/04/11 06:30:40;;;;;;;2.38;0.75;;;;;;;21.12;32.05;99192.44;5133228;28;20051;-60
2022/04/11 06:33:06;;;;;;;5.15;1.40;;;;;;;21.13;31.64;99185.69;5133224;28;20035;-59
2022/04/11 06:35:31;;;;;;;6.28;1.05;;;;;;;21.11;31.75;99182.50;5133506;28;20043;-60
2022/04/11 06:37:56;;;;;;;9.00;1.48;;;;;;;21.13;31.97;99197.63;5133163;28;20051;-60
2022/04/11 06:40:22;;;;;;;4.40;1.05;;;;;;;21.14;31.50;99192.84;5133137;28;20137;-64
2022/04/11 06:42:47;;;;;;;2.95;1.05;;;;;;;21.16;31.82;99182.97;5133066;28;20051;-64
2022/04/11 06:45:14;;;;;;;3.92;0.80;;;;;;;21.15;31.79;99188.94;5132962;28;20462;-64
2022/04/11 06:47:42;;;;;;;2.65;0.90;;;;;;;21.16;31.69;99196.09;5132997;28;20503;-64
2022/04/11 06:50:08;;;;;;;4.97;1.20;;;;;;;21.16;31.66;99193.31;5132936;28;20126;-64
2022/04/11 06:52:33;;;;;;;5.05;1.00;;;;;;;21.19;31.82;99180.59;5131741;27;20209;-64
2022/04/11 06:54:58;;;;;;;2.85;1.45;;;;;;;21.18;31.80;99188.16;5131076;28;20047;-64
2022/04/11 06:57:24;;;;;;;1.83;0.90;;;;;;;21.19;31.72;99189.75;5130822;28;20622;-64
2022/04/11 06:59:50;;;;;;;2.92;0.90;;;;;;;21.23;31.55;99187.81;5130442;28;20583;-68
2022/04/11 07:02:16;;;;;;;3.63;0.85;;;;;;;21.23;31.63;99182.25;5116854;28;20057;-62
2022/04/11 07:04:42;;;;;;;3.33;0.90;;;;;;;21.26;31.95;99187.03;5125033;28;20086;-62
2022/04/11 07:07:07;;;;;;;5.70;1.30;;;;;;;21.32;31.74;99179.97;5119232;28;20093;-62
2022/04/11 07:09:33;;;;;;;2.58;0.98;;;;;;;21.35;31.93;99184.75;5120327;28;20354;-62
2022/04/11 07:11:58;;;;;;;2.25;1.00;;;;;;;21.35;31.90;99175.59;5124339;28;20066;-63
2022/04/11 07:14:24;;;;;;;2.22;1.02;;;;;;;21.35;31.59;99179.19;5126696;28;20410;-61
2022/04/11 07:16:51;;;;;;;2.45;0.80;;;;;;;21.37;32.01;99178.81;5122895;28;20089;-63
2022/04/11 07:19:17;;;;;;;2.40;0.80;;;;;;;21.37;31.82;99182.41;5129947;28;20477;-63
2022/04/11 07:21:42;;;;;;;2.88;0.75;;;;;;;21.40;31.94;99180.81;5130922;28;20133;-62
2022/04/11 07:24:08;;;;;;;1.75;0.80;;;;;;;21.40;31.92;99181.63;5130295;28;20067;-62
2022/04/11 07:26:33;;;;;;;1.73;0.80;;;;;;;21.41;32.13;99169.31;5126138;28;20042;-62
2022/04/11 07:28:58;;;;;;;1.70;0.80;;;;;;;21.42;31.80;99175.66;5127879;28;20044;-62
2022/04/11 07:31:27;;;;;;;1.92;0.82;;;;;;;21.44;31.87;99176.09;5114182;28;20071;-62
2022/04/11 07:33:52;;;;;;;1.77;0.80;;;;;;;21.45;31.98;99171.34;5126458;28;20063;-62
2022/04/11 07:36:18;;;;;;;1.85;1.00;;;;;;;21.43;31.88;99158.59;5128169;28;20474;-62
2022/04/11 07:38:43;;;;;;;1.80;0.80;;;;;;;21.45;32.09;99160.19;5128973;28;20040;-61
2022/04/11 07:41:09;;;;;;;1.80;0.90;;;;;;;21.45;32.08;99163.78;5130323;28;20047;-62
2022/04/11 07:43:34;;;;;;;1.63;0.70;;;;;;;21.44;32.21;99156.63;5119607;28;20053;-61
2022/04/11 07:46:01;;;;;;;1.95;0.80;;;;;;;21.43;32.39;99164.19;5131091;28;20518;-60
2022/04/11 07:48:26;;;;;;;1.77;0.73;;;;;;;21.45;32.49;99158.22;5128234;28;20043;-62
2022/04/11 07:50:52;;;;;;;2.90;0.75;;;;;;;21.46;32.35;99157.03;5128147;28;20100;-61
2022/04/11 07:53:18;;;;;;;4.28;0.90;;;;;;;21.48;32.26;99157.44;5127662;28;20084;-61
2022/04/11 07:55:44;;;;;;;1.98;1.00;;;;;;;21.47;32.30;99152.25;5129006;28;20399;-60
2022/04/11 07:58:09;;;;;;;5.60;1.00;;;;;;;21.47;32.52;99155.03;5118614;28;20114;-61
2022/04/11 08:00:35;;;;;;;1.75;0.80;;;;;;;21.44;32.52;99156.63;5129902;28;20396;-60
2022/04/11 08:03:00;;;;;;;1.40;0.80;;;;;;;21.47;32.53;99146.69;5123246;28;20046;-62
2022/04/11 08:05:26;;;;;;;4.88;1.00;;;;;;;21.49;32.43;99150.69;5116704;27;20180;-63
2022/04/11 08:07:52;;;;;;;3.47;0.90;;;;;;;21.49;32.63;99139.56;5118801;28;20039;-62
2022/04/11 08:10:18;;;;;;;3.25;0.93;;;;;;;21.47;32.87;99141.94;5123426;28;20043;-63
2022/04/11 08:12:57;;;;;;;5.68;1.10;;;;;;;21.50;33.02;99141.16;5127006;28;20457;-66
2022/04/11 08:15:24;;;;;;;3.38;0.90;;;;;;;21.50;32.94;99141.16;5129010;28;20035;-62
2022/04/11 08:17:49;;;;;;;8.10;0.90;;;;;;;21.50;32.74;99137.56;5116498;28;20057;-63
2022/04/11 08:20:15;;;;;;;2.90;1.00;;;;;;;21.52;33.08;99132.44;5120733;28;20031;-62
2022/04/11 08:22:40;;;;;;;3.05;1.13;;;;;;;21.51;33.17;99137.19;5125676;28;20047;-62
2022/04/11 08:25:08;;;;;;;5.13;1.00;;;;;;;21.51;33.04;99141.97;5124210;28;20039;-62
2022/04/11 08:27:34;;;;;;;3.58;0.93;;;;;;;21.51;33.31;99141.97;5123120;28;20092;-61
2022/04/11 08:30:00;;;;;;;2.13;0.82;;;;;;;21.48;32.99;99137.16;5101667;28;20055;-61
2022/04/11 08:32:25;;;;;;;1.42;0.80;;;;;;;21.49;33.44;99141.53;5106711;28;20104;-62
2022/04/11 08:34:50;;;;;;;3.60;0.90;;;;;;;21.48;33.62;99123.25;5100798;27;20837;-62
2022/04/11 08:37:16;;;;;;;3.38;0.90;;;;;;;21.45;33.51;99127.59;5103602;28;20052;-62
2022/04/11 08:39:41;;;;;;;2.70;0.90;;;;;;;21.50;33.37;99123.66;5107378;28;20039;-64
2022/04/11 08:42:07;;;;;;;2.97;0.98;;;;;;;21.50;33.64;99129.22;5104363;27;20055;-62
2022/04/11 08:44:33;;;;;;;4.35;0.73;;;;;;;21.49;33.56;99122.84;5102108;28;20185;-60
2022/04/11 08:47:05;;;;;;;1.55;0.70;;;;;;;21.47;33.70;99130.00;5100930;28;20052;-61
2022/04/11 08:49:31;;;;;;;2.27;0.80;;;;;;;21.44;33.74;99123.22;5101906;28;20044;-60
2022/04/11 08:51:57;;;;;;;1.58;0.80;;;;;;;21.46;33.58;99114.50;5099784;28;20062;-63
2022/04/11 08:54:22;;;;;;;3.95;1.00;;;;;;;21.44;33.57;99120.44;5101918;28;20503;-63
2022/04/11 08:56:48;;;;;;;3.15;0.80;;;;;;;21.42;33.61;99114.44;5102596;28;20047;-62
2022/04/11 08:59:14;;;;;;;2.47;0.80;;;;;;;21.41;33.57;99108.09;5102199;28;20039;-64
2022/04/11 09:01:39;;;;;;;1.95;0.90;;;;;;;21.39;33.80;99118.81;5098970;28;20040;-62
2022/04/11 09:04:08;;;;;;;2.63;0.90;;;;;;;21.40;34.08;99106.50;5101754;28;20051;-61
2022/04/11 09:06:34;;;;;;;1.00;0.70;;;;;;;21.38;34.32;99108.88;5102454;28;20520;-61
2022/04/11 09:08:59;;;;;;;1.88;0.70;;;;;;;21.37;34.28;99112.84;5103097;28;20051;-61
2022/04/11 09:11:32;;;;;;;1.85;0.80;;;;;;;21.34;34.23;99110.81;5104376;28;20666;-63
2022/04/11 09:14:00;;;;;;;1.58;0.90;;;;;;;21.32;33.97;99106.84;5081816;28;20126;-62
2022/04/11 09:16:27;;;;;;;1.85;0.80;;;;;;;21.33;33.97;99112.00;5102881;28;20039;-61
2022/04/11 09:18:53;;;;;;;1.20;0.70;;;;;;;21.32;34.02;99081.78;5099376;28;20094;-61
2022/04/11 09:21:23;;;;;;;1.30;0.80;;;;;;;21.30;33.92;99100.88;5096382;28;20047;-62
2022/04/11 09:23:50;;;;;;;2.92;1.20;;;;;;;21.29;34.15;99102.84;5101770;28;20604;-62
2022/04/11 09:26:19;;;;;;;2.65;0.90;;;;;;;21.28;34.20;99101.22;5107582;28;20052;-61
2022/04/11 09:29:01;;;;;;;1.60;0.80;;;;;;;21.28;34.22;99084.53;5101441;28;20084;-62
2022/04/11 09:31:27;;;;;;;1.73;0.70;;;;;;;21.31;33.90;99080.22;5101844;28;20503;-62
2022/04/11 09:33:53;;;;;;;3.97;0.98;;;;;;;21.26;33.97;99070.19;5101227;28;20494;-62
2022/04/11 09:36:20;;;;;;;3.15;0.80;;;;;;;21.25;33.81;99074.16;5105517;28;20142;-59
2022/04/11 09:38:59;;;;;;;5.72;1.00;;;;;;;21.30;33.40;99081.41;5103721;28;20154;-62
2022/04/11 09:41:34;;;;;;;4.90;0.98;;;;;;;21.29;33.89;99080.59;5101886;28;20055;-61
2022/04/11 09:44:25;;;;;;;1.85;0.82;;;;;;;21.28;33.86;99067.84;5104209;28;20047;-61
2022/04/11 09:46:52;;;;;;;2.42;0.95;;;;;;;21.31;34.24;99064.31;5102420;27;20893;-61
2022/04/11 09:49:18;;;;;;;2.90;1.10;;;;;;;21.32;33.99;99054.78;5098885;27;20423;-61
2022/04/11 09:52:09;;;;;;;3.88;0.90;;;;;;;21.34;34.27;99059.94;5100926;28;20060;-63
2022/04/11 09:54:47;;;;;;;2.00;0.90;;;;;;;21.35;34.42;99062.34;5106728;28;20118;-63
2022/04/11 09:57:14;;;;;;;3.15;0.70;;;;;;;21.36;34.54;99046.44;5102977;28;20742;-62
2022/04/11 09:59:41;;;;;;;1.77;0.82;;;;;;;21.37;34.41;99053.63;5103414;28;20055;-63
2022/04/11 10:02:08;;;;;;;1.40;0.80;;;;;;;21.37;34.34;99043.28;5097988;28;20483;-64
2022/04/11 10:04:34;;;;;;;2.20;0.93;;;;;;;21.38;34.38;99036.53;5103995;28;20418;-62
2022/04/11 10:07:01;;;;;;;2.40;0.90;;;;;;;21.39;34.61;99040.91;5093310;28;20050;-61
2022/04/11 10:09:26;;;;;;;2.15;0.70;;;;;;;21.42;34.45;99036.53;5098394;28;20055;-61
2022/04/11 10:11:53;;;;;;;1.35;0.60;;;;;;;21.42;34.88;99040.13;5099068;28;20042;-61
2022/04/11 10:14:23;;;;;;;1.48;0.77;;;;;;;21.50;34.59;99045.72;5101768;28;20551;-63
2022/04/11 10:16:57;;;;;;;2.33;0.90;;;;;;;21.53;34.51;99014.38;5104350;28;20052;-60
2022/04/11 10:19:25;;;;;;;2.67;0.90;;;;;;;21.51;34.45;99025.88;5113292;28;20086;-60
2022/04/11 10:21:54;;;;;;;4.13;0.82;;;;;;;21.50;34.40;99020.69;5114188;28;20134;-60
2022/04/11 10:24:37;;;;;;;4.90;0.80;;;;;;;21.46;34.52;99003.19;5119389;28;20402;-59
2022/04/11 10:27:25;;;;;;;1.73;0.70;;;;;;;21.42;34.31;99005.94;5120900;27;20050;-60
2022/04/11 10:29:54;;;;;;;1.30;0.70;;;;;;;21.37;34.42;99001.56;5131383;28;20054;-60
2022/04/11 10:32:25;;;;;;;1.75;0.90;;;;;;;21.37;34.29;99003.56;5126841;28;20575;-66
2022/04/11 10:34:54;;;;;;;1.08;0.60;;;;;;;21.37;34.30;99003.56;5125534;28;20046;-66
2022/04/11 10:37:21;;;;;;;2.28;0.88;;;;;;;21.35;33.84;98992.00;5130296;28;20035;-66
2022/04/11 10:39:48;;;;;;;1.50;0.70;;;;;;;21.36;33.95;98988.84;5129499;28;20051;-66
2022/04/11 10:42:23;;;;;;;1.38;0.70;;;;;;;21.35;33.84;98986.44;5121221;28;20046;-66
2022/04/11 10:44:59;;;;;;;2.85;0.70;;;;;;;21.34;33.91;98982.06;5126650;28;20047;-66
2022/04/11 10:47:34;;;;;;;0.90;0.60;;;;;;;21.33;33.87;98974.91;5129394;28;20072;-66
2022/04/11 10:50:01;;;;;;;1.00;0.50;;;;;;;21.34;33.88;98971.72;5124326;28;20047;-66
2022/04/11 10:52:37;;;;;;;2.88;0.85;;;;;;;21.32;33.72;98974.09;5125953;28;20035;-66
2022/04/11 10:55:20;;;;;;;1.42;0.90;;;;;;;21.34;33.84;98965.38;5130624;28;20414;-66
2022/04/11 10:57:51;;;;;;;1.17;0.52;;;;;;;21.33;33.54;98961.78;5121090;28;20081;-66
2022/04/11 11:00:18;;;;;;;0.93;0.60;;;;;;;21.33;33.78;98953.44;5124900;28;20046;-66
2022/04/11 11:02:52;;;;;;;1.15;0.50;;;;;;;21.32;33.66;98954.63;5126014;28;20071;-66
2022/04/11 11:05:48;;;;;;;0.93;0.63;;;;;;;21.32;33.53;98929.59;5125331;28;20062;-66
2022/04/11 11:08:13;;;;;;;1.40;0.50;;;;;;;21.33;33.38;98928.41;5113142;28;20518;-66
2022/04/11 11:10:54;;;;;;;1.60;0.63;;;;;;;21.36;33.63;98913.72;5115578;28;21055;-66
2022/04/11 11:13:35;;;;;;;0.70;0.50;;;;;;;21.37;33.15;98937.56;5110685;28;20055;-66
2022/04/11 11:16:21;;;;;;;1.25;0.70;;;;;;;21.38;33.41;98911.34;5129846;28;20039;-66
2022/04/11 11:18:47;;;;;;;2.47;0.57;;;;;;;21.38;33.27;98905.78;5125750;28;20039;-66
2022/04/11 11:21:14;;;;;;;1.33;0.63;;;;;;;21.37;33.28;98904.19;5129372;28;20109;-66
2022/04/11 11:23:39;;;;;;;0.85;0.55;;;;;;;21.40;33.12;98902.59;5127705;28;20047;-66
2022/04/11 11:26:15;;;;;;;0.88;0.60;;;;;;;21.41;33.32;98904.97;5112226;28;20047;-66
2022/04/11 11:28:44;;;;;;;0.85;0.57;;;;;;;21.42;33.39;98887.09;5125015;28;20475;-66
2022/04/11 11:31:10;;;;;;;1.42;0.60;;;;;;;21.43;33.06;98885.13;5120979;28;20039;-66
2022/04/11 11:33:36;;;;;;;0.85;0.40;;;;;;;21.45;33.25;98893.09;5108048;28;20120;-65